Frostburg, Pennsylvania
Current Conditions -  °F | °C
As of 3:00 AM on Wednesday 22 Oct 2014 (Local Time) from KDUJ Reporting Station
Overcast Overcast  
Wind Chill: 43°   Ceiling: 1600
Heat Index: 47°   Visibility: 10mi
Dew Point: 44°   Wind: 9mph
Humidity: 90%   Direction: 10°N
Pressure: 29.99"   Gusts: NA
Location:  40.96°N, 79.03°W
Report Text: KDUJ 220700Z AUTO 01008KT 10SM FEW009 OVC016 08/07 A2999 RMK AO2 T00830067
Loading
Personal Weather Stations






























Interactive Weather Map
Tropical Storm Tracking
New forecast layout! Learn more

10-Day Weather Forecast

Advertisements
Track Severe Weather on mobile